Time;durP1;ratioP1;P1;durP2;ratioP2;P2;SDS_P1;SDS_P2;PMS_P1;PMS_P2;Temp;Humidity;BMP_temperature;BMP_pressure;BME280_temperature;BME280_humidity;BME280_pressure;Samples;Min_cycle;Max_cycle;Signal;HPM_P1;HPM_P2
2023/08/26 00:07:18;;;;;;;8.7;5.7;;;;;;;22.37;77.83;;;;;
2023/08/26 00:18:18;;;;;;;11.2;5.4;;;;;;;22.31;77.94;;;;;
2023/08/26 00:28:18;;;;;;;11.2;5.4;;;;;;;22.24;77.25;;;;;
2023/08/26 00:39:18;;;;;;;11.2;5.4;;;;;;;22.02;78.1;;;;;
2023/08/26 00:50:18;;;;;;;9;5.3;;;;;;;21.82;78;;;;;
2023/08/26 01:00:18;;;;;;;9;5.3;;;;;;;21.65;79.07;;;;;
2023/08/26 01:11:18;;;;;;;9;5.3;;;;;;;21.5;79.93;;;;;
2023/08/26 01:21:18;;;;;;;10.1;5.7;;;;;;;21.57;79.98;;;;;
2023/08/26 01:32:18;;;;;;;10.1;5.7;;;;;;;21.59;79.57;;;;;
2023/08/26 01:42:18;;;;;;;9.6;5.8;;;;;;;21.38;80.19;;;;;
2023/08/26 01:53:18;;;;;;;9.6;5.8;;;;;;;21.2;81.52;;;;;
2023/08/26 02:03:19;;;;;;;9.6;5.8;;;;;;;20.89;82.11;;;;;
2023/08/26 02:14:18;;;;;;;9.6;6;;;;;;;20.66;82.61;;;;;
2023/08/26 02:24:19;;;;;;;9.6;6;;;;;;;20.35;83.75;;;;;
2023/08/26 02:35:18;;;;;;;9.6;6;;;;;;;20.25;84.29;;;;;
2023/08/26 02:45:18;;;;;;;10.5;6.6;;;;;;;20.14;84.65;;;;;
2023/08/26 02:56:18;;;;;;;10.5;6.6;;;;;;;20.08;84.65;;;;;
2023/08/26 03:06:18;;;;;;;10.5;6.6;;;;;;;19.94;84.98;;;;;
2023/08/26 03:16:19;;;;;;;10.6;6.9;;;;;;;19.8;86.1;;;;;
2023/08/26 03:27:18;;;;;;;10.6;6.9;;;;;;;19.88;85.62;;;;;
2023/08/26 03:38:18;;;;;;;10.6;6.9;;;;;;;19.7;85.93;;;;;
2023/08/26 03:48:18;;;;;;;11.6;6;;;;;;;19.65;85.74;;;;;
2023/08/26 03:59:18;;;;;;;11.6;6;;;;;;;19.66;86.09;;;;;
2023/08/26 04:09:18;;;;;;;11.6;6;;;;;;;19.69;85.75;;;;;
2023/08/26 04:19:18;;;;;;;9.3;5.6;;;;;;;19.76;85.99;;;;;
2023/08/26 04:29:18;;;;;;;9.3;5.6;;;;;;;19.9;85.84;;;;;
2023/08/26 04:39:20;;;;;;;9.3;5.6;;;;;;;20.16;85.81;;;;;
2023/08/26 04:49:18;;;;;;;9.1;5.8;;;;;;;20.21;86.28;;;;;
2023/08/26 04:59:18;;;;;;;9.1;5.8;;;;;;;20.64;85.65;;;;;
2023/08/26 05:10:18;;;;;;;9.1;5.8;;;;;;;21.09;84.3;;;;;
2023/08/26 05:20:18;;;;;;;9.4;5.5;;;;;;;21.48;83.3;;;;;
2023/08/26 05:31:18;;;;;;;9.4;5.5;;;;;;;21.96;82.23;;;;;
2023/08/26 05:41:18;;;;;;;9.4;5.5;;;;;;;22.44;81.39;;;;;
2023/08/26 05:51:18;;;;;;;11.6;7.6;;;;;;;22.86;80.83;;;;;
2023/08/26 06:01:18;;;;;;;11.6;7.6;;;;;;;23.4;79.56;;;;;
2023/08/26 06:12:18;;;;;;;10;5.8;;;;;;;23.97;75.94;;;;;
2023/08/26 06:23:18;;;;;;;10;5.8;;;;;;;24.41;75.97;;;;;
2023/08/26 06:33:18;;;;;;;10;5.8;;;;;;;25.14;73.23;;;;;
2023/08/26 06:43:18;;;;;;;10;5.9;;;;;;;25.48;70.91;;;;;
2023/08/26 06:53:21;;;;;;;10;5.9;;;;;;;25.67;72.27;;;;;
2023/08/26 07:04:18;;;;;;;10;5.9;;;;;;;26.33;71.72;;;;;
2023/08/26 07:15:18;;;;;;;10.1;6.1;;;;;;;26.75;69.16;;;;;
2023/08/26 07:26:18;;;;;;;10.1;6.1;;;;;;;27.09;68.16;;;;;
2023/08/26 07:36:18;;;;;;;10.1;6.1;;;;;;;27.68;66.48;;;;;
2023/08/26 07:46:22;;;;;;;10.8;7.1;;;;;;;27.7;64.71;;;;;
2023/08/26 07:56:18;;;;;;;10.8;7.1;;;;;;;28.21;62.75;;;;;
2023/08/26 08:07:18;;;;;;;10.8;7.1;;;;;;;28.6;63.03;;;;;
2023/08/26 08:17:18;;;;;;;10;6;;;;;;;28.88;57.36;;;;;
2023/08/26 08:27:19;;;;;;;10;6;;;;;;;28.48;56.33;;;;;
2023/08/26 08:38:18;;;;;;;10;6;;;;;;;28.85;56.44;;;;;
2023/08/26 08:49:19;;;;;;;8.8;4.4;;;;;;;28.9;53.5;;;;;
2023/08/26 08:59:19;;;;;;;8.8;4.4;;;;;;;29.11;54.6;;;;;
2023/08/26 09:10:19;;;;;;;8.8;4.4;;;;;;;29.33;53.29;;;;;
2023/08/26 09:21:18;;;;;;;7.3;4.3;;;;;;;29.41;55.58;;;;;
2023/08/26 09:32:18;;;;;;;7.3;4.3;;;;;;;29.74;55.69;;;;;
2023/08/26 09:42:18;;;;;;;7.3;4.3;;;;;;;30.22;53.41;;;;;
2023/08/26 09:53:19;;;;;;;8.1;5.1;;;;;;;30.02;54.34;;;;;
2023/08/26 10:03:19;;;;;;;8.1;5.1;;;;;;;29.84;55.31;;;;;
2023/08/26 10:14:19;;;;;;;11;4.6;;;;;;;29.58;58.31;;;;;
2023/08/26 10:24:19;;;;;;;11;4.6;;;;;;;29.02;65;;;;;
2023/08/26 10:34:19;;;;;;;11;4.6;;;;;;;28.43;70.42;;;;;
2023/08/26 10:44:19;;;;;;;9.5;5.6;;;;;;;27.85;70.75;;;;;
2023/08/26 10:54:20;;;;;;;9.5;5.6;;;;;;;27.3;74.82;;;;;
2023/08/26 11:04:19;;;;;;;9.5;5.6;;;;;;;26.81;75.25;;;;;
2023/08/26 11:15:19;;;;;;;10.9;5.4;;;;;;;26.24;76.56;;;;;
2023/08/26 11:26:20;;;;;;;10.9;5.4;;;;;;;25.13;73.51;;;;;
2023/08/26 11:36:21;;;;;;;10.9;5.4;;;;;;;23.87;76.99;;;;;
2023/08/26 11:46:23;;;;;;;7.8;5;;;;;;;23.38;80.31;;;;;
2023/08/26 11:57:21;;;;;;;7.8;5;;;;;;;22;84.1;;;;;
2023/08/26 12:07:20;;;;;;;7.8;5;;;;;;;21.28;84.59;;;;;
2023/08/26 12:17:21;;;;;;;7.6;3.3;;;;;;;21.24;84.67;;;;;
2023/08/26 12:27:21;;;;;;;7.6;3.3;;;;;;;20.81;84.84;;;;;
2023/08/26 12:38:21;;;;;;;7.6;3.3;;;;;;;20.71;85.76;;;;;
2023/08/26 12:48:22;;;;;;;6.2;2.8;;;;;;;20.55;86.96;;;;;
2023/08/26 12:58:21;;;;;;;6.2;2.8;;;;;;;20.41;87.56;;;;;
2023/08/26 13:09:21;;;;;;;6.2;2.8;;;;;;;20.24;88.1;;;;;
2023/08/26 13:19:22;;;;;;;5.6;2.5;;;;;;;20.05;89.02;;;;;
2023/08/26 13:30:21;;;;;;;5.6;2.5;;;;;;;20.12;87.54;;;;;
2023/08/26 13:40:21;;;;;;;5.6;2.5;;;;;;;20.41;86.16;;;;;
2023/08/26 13:51:21;;;;;;;6.4;2.2;;;;;;;21.11;84.21;;;;;
2023/08/26 14:01:23;;;;;;;6.4;2.2;;;;;;;21.93;82.68;;;;;
2023/08/26 14:12:21;;;;;;;6.4;2.2;;;;;;;22.82;80.96;;;;;
2023/08/26 14:23:21;;;;;;;3.8;1.6;;;;;;;23.22;79.49;;;;;
2023/08/26 14:33:21;;;;;;;3.8;1.6;;;;;;;23.03;77.61;;;;;
2023/08/26 14:44:21;;;;;;;4.1;1.8;;;;;;;23.24;76.93;;;;;
2023/08/26 14:54:21;;;;;;;4.1;1.8;;;;;;;22.96;78.42;;;;;
2023/08/26 15:04:21;;;;;;;4.1;1.8;;;;;;;22.53;81.05;;;;;
2023/08/26 15:15:22;;;;;;;5.6;2.6;;;;;;;22.46;81.21;;;;;
2023/08/26 15:25:22;;;;;;;5.6;2.6;;;;;;;22.86;80.77;;;;;
2023/08/26 15:36:22;;;;;;;5.6;2.6;;;;;;;22.27;81.8;;;;;
2023/08/26 15:46:25;;;;;;;8.3;3.3;;;;;;;22.61;80.55;;;;;
2023/08/26 15:57:22;;;;;;;8.3;3.3;;;;;;;23.48;78.08;;;;;
2023/08/26 16:07:26;;;;;;;8.3;3.3;;;;;;;23.14;77.6;;;;;
2023/08/26 16:17:33;;;;;;;5.9;3.4;;;;;;;23.61;76.15;;;;;
2023/08/26 16:28:33;;;;;;;5.9;3.4;;;;;;;23.64;76.78;;;;;
2023/08/26 16:38:47;;;;;;;5.9;3.4;;;;;;;23.76;75.97;;;;;
2023/08/26 16:48:49;;;;;;;4;1.9;;;;;;;23.6;76.78;;;;;
2023/08/26 16:59:49;;;;;;;4;1.9;;;;;;;23.22;75.9;;;;;
2023/08/26 17:10:19;;;;;;;4;1.9;;;;;;;22.88;77.95;;;;;
2023/08/26 17:20:19;;;;;;;4.8;2.3;;;;;;;22.44;79.75;;;;;
2023/08/26 17:31:21;;;;;;;4.8;2.3;;;;;;;21.95;81.01;;;;;
2023/08/26 17:42:19;;;;;;;4.8;2.3;;;;;;;21.62;82;;;;;
2023/08/26 17:52:46;;;;;;;5.7;2.9;;;;;;;21.21;83.56;;;;;
2023/08/26 18:02:48;;;;;;;5.7;2.9;;;;;;;20.72;86.63;;;;;
2023/08/26 18:13:48;;;;;;;10.6;6.2;;;;;;;20.58;85.78;;;;;
2023/08/26 18:23:47;;;;;;;10.6;6.2;;;;;;;20.34;87.31;;;;;
2023/08/26 18:33:54;;;;;;;10.6;6.2;;;;;;;20.19;87.23;;;;;
2023/08/26 18:43:54;;;;;;;9.7;7.2;;;;;;;20.07;87.39;;;;;
2023/08/26 18:54:54;;;;;;;9.7;7.2;;;;;;;19.99;87.38;;;;;
2023/08/26 19:04:56;;;;;;;9.7;7.2;;;;;;;19.79;88.66;;;;;
2023/08/26 19:15:55;;;;;;;7.7;4.5;;;;;;;19.54;89.26;;;;;
2023/08/26 19:26:54;;;;;;;7.7;4.5;;;;;;;19.47;89.49;;;;;
2023/08/26 19:36:58;;;;;;;7.7;4.5;;;;;;;19.41;89.7;;;;;
2023/08/26 19:46:58;;;;;;;12.3;9.3;;;;;;;19.28;89.94;;;;;
2023/08/26 19:57:58;;;;;;;12.3;9.3;;;;;;;19.31;90.04;;;;;
2023/08/26 20:08:56;;;;;;;12.3;9.3;;;;;;;19.11;90.71;;;;;
2023/08/26 20:19:04;;;;;;;7.5;4.3;;;;;;;18.96;91.1;;;;;
2023/08/26 20:29:04;;;;;;;7.5;4.3;;;;;;;18.98;90.85;;;;;
2023/08/26 20:39:05;;;;;;;7.5;4.3;;;;;;;19.1;91.33;;;;;
2023/08/26 20:49:09;;;;;;;8;5.4;;;;;;;19.09;91.6;;;;;
2023/08/26 20:59:09;;;;;;;8;5.4;;;;;;;19.22;91.02;;;;;
2023/08/26 21:09:09;;;;;;;8;5.4;;;;;;;19.28;90.74;;;;;
2023/08/26 21:19:10;;;;;;;11.1;8.5;;;;;;;19.4;90.36;;;;;
2023/08/26 21:30:10;;;;;;;11.1;8.5;;;;;;;19.69;90.05;;;;;
2023/08/26 21:40:12;;;;;;;11.1;8.5;;;;;;;19.54;89.98;;;;;
2023/08/26 21:51:11;;;;;;;9.8;5.9;;;;;;;19.19;91.2;;;;;
2023/08/26 22:01:13;;;;;;;9.8;5.9;;;;;;;19.05;91.81;;;;;
2023/08/26 22:12:11;;;;;;;9.8;5.9;;;;;;;19.24;91.77;;;;;
2023/08/26 22:22:11;;;;;;;9.1;4.6;;;;;;;19.4;91.07;;;;;
2023/08/26 22:32:14;;;;;;;9.1;4.6;;;;;;;19.52;90.59;;;;;
2023/08/26 22:43:11;;;;;;;9.1;4.6;;;;;;;19.54;90.45;;;;;
2023/08/26 22:53:11;;;;;;;9.2;5.3;;;;;;;19.31;91.39;;;;;
2023/08/26 23:04:11;;;;;;;9.2;5.3;;;;;;;19.02;92.57;;;;;
2023/08/26 23:14:12;;;;;;;8.4;4.9;;;;;;;19.25;92.07;;;;;
2023/08/26 23:24:11;;;;;;;8.4;4.9;;;;;;;19.39;91.77;;;;;
2023/08/26 23:34:12;;;;;;;8.4;4.9;;;;;;;18.57;95.56;;;;;
2023/08/26 23:45:12;;;;;;;7.3;2.9;;;;;;;18.09;95.41;;;;;
2023/08/26 23:55:12;;;;;;;7.3;2.9;;;;;;;17.85;95.5;;;;;
